sensor_id;sensor_type;location;lat;lon;timestamp;temperature;humidity
2861;DHT22;1438;50.922;6.704;2023-02-15T00:04:16;1.80;99.90
2861;DHT22;1438;50.922;6.704;2023-02-15T00:06:42;1.90;99.90
2861;DHT22;1438;50.922;6.704;2023-02-15T00:14:21;1.60;99.90
2861;DHT22;1438;50.922;6.704;2023-02-15T00:16:49;1.90;99.90
2861;DHT22;1438;50.922;6.704;2023-02-15T00:21:42;1.90;99.90
2861;DHT22;1438;50.922;6.704;2023-02-15T00:29:02;0.10;99.90
2861;DHT22;1438;50.922;6.704;2023-02-15T00:33:56;1.20;99.90
2861;DHT22;1438;50.922;6.704;2023-02-15T00:36:25;1.50;99.90
2861;DHT22;1438;50.922;6.704;2023-02-15T00:41:17;1.30;99.90
2861;DHT22;1438;50.922;6.704;2023-02-15T00:51:01;1.80;99.90
2861;DHT22;1438;50.922;6.704;2023-02-15T00:53:27;1.80;99.90
2861;DHT22;1438;50.922;6.704;2023-02-15T01:00:46;1.50;99.90
2861;DHT22;1438;50.922;6.704;2023-02-15T01:17:50;1.60;99.90
2861;DHT22;1438;50.922;6.704;2023-02-15T01:34:56;1.40;99.90
2861;DHT22;1438;50.922;6.704;2023-02-15T01:44:59;1.70;99.90
2861;DHT22;1438;50.922;6.704;2023-02-15T01:52:20;1.30;99.90
2861;DHT22;1438;50.922;6.704;2023-02-15T01:54:46;1.00;99.90
2861;DHT22;1438;50.922;6.704;2023-02-15T01:57:19;1.30;99.90
2861;DHT22;1438;50.922;6.704;2023-02-15T01:59:52;1.20;99.90
2861;DHT22;1438;50.922;6.704;2023-02-15T02:02:20;1.30;99.90
2861;DHT22;1438;50.922;6.704;2023-02-15T02:04:51;1.40;99.90
2861;DHT22;1438;50.922;6.704;2023-02-15T02:07:22;1.40;99.90
2861;DHT22;1438;50.922;6.704;2023-02-15T02:09:48;1.00;99.90
2861;DHT22;1438;50.922;6.704;2023-02-15T02:12:16;1.40;99.90
2861;DHT22;1438;50.922;6.704;2023-02-15T02:14:42;1.30;99.90
2861;DHT22;1438;50.922;6.704;2023-02-15T02:31:41;1.00;99.90
2861;DHT22;1438;50.922;6.704;2023-02-15T02:36:58;1.20;99.90
2861;DHT22;1438;50.922;6.704;2023-02-15T02:44:48;1.20;99.90
2861;DHT22;1438;50.922;6.704;2023-02-15T02:47:43;0.80;99.90
2861;DHT22;1438;50.922;6.704;2023-02-15T02:50:15;1.10;99.90
2861;DHT22;1438;50.922;6.704;2023-02-15T02:52:44;0.80;99.90
2861;DHT22;1438;50.922;6.704;2023-02-15T03:10:04;2.10;99.90
2861;DHT22;1438;50.922;6.704;2023-02-15T03:12:35;0.50;99.90
2861;DHT22;1438;50.922;6.704;2023-02-15T03:15:15;0.60;99.90
2861;DHT22;1438;50.922;6.704;2023-02-15T03:25:24;1.00;99.90
2861;DHT22;1438;50.922;6.704;2023-02-15T03:30:28;0.90;99.90
2861;DHT22;1438;50.922;6.704;2023-02-15T03:32:56;0.80;99.90
2861;DHT22;1438;50.922;6.704;2023-02-15T03:35:26;0.80;99.90
2861;DHT22;1438;50.922;6.704;2023-02-15T03:37:58;0.80;99.90
2861;DHT22;1438;50.922;6.704;2023-02-15T03:43:49;0.40;99.90
2861;DHT22;1438;50.922;6.704;2023-02-15T03:49:21;0.20;99.90
2861;DHT22;1438;50.922;6.704;2023-02-15T03:51:49;0.70;99.90
2861;DHT22;1438;50.922;6.704;2023-02-15T03:54:17;0.40;99.90
2861;DHT22;1438;50.922;6.704;2023-02-15T03:59:48;0.30;99.90
2861;DHT22;1438;50.922;6.704;2023-02-15T04:03:01;0.60;99.90
2861;DHT22;1438;50.922;6.704;2023-02-15T04:05:29;0.30;99.90
2861;DHT22;1438;50.922;6.704;2023-02-15T04:07:54;0.50;99.90
2861;DHT22;1438;50.922;6.704;2023-02-15T04:10:20;0.40;99.90
2861;DHT22;1438;50.922;6.704;2023-02-15T04:13:04;0.10;99.90
2861;DHT22;1438;50.922;6.704;2023-02-15T04:15:30;0.50;99.90
2861;DHT22;1438;50.922;6.704;2023-02-15T04:18:14;0.50;99.90
2861;DHT22;1438;50.922;6.704;2023-02-15T04:20:44;0.50;99.90
2861;DHT22;1438;50.922;6.704;2023-02-15T04:26:13;-0.30;99.90
2861;DHT22;1438;50.922;6.704;2023-02-15T04:28:38;0.10;99.90
2861;DHT22;1438;50.922;6.704;2023-02-15T04:31:04;0.00;99.90
2861;DHT22;1438;50.922;6.704;2023-02-15T04:33:29;0.40;99.90
2861;DHT22;1438;50.922;6.704;2023-02-15T04:35:55;0.40;99.90
2861;DHT22;1438;50.922;6.704;2023-02-15T04:38:22;0.10;99.90
2861;DHT22;1438;50.922;6.704;2023-02-15T04:40:51;0.10;99.90
2861;DHT22;1438;50.922;6.704;2023-02-15T04:43:18;0.10;99.90
2861;DHT22;1438;50.922;6.704;2023-02-15T04:45:50;0.40;99.90
2861;DHT22;1438;50.922;6.704;2023-02-15T04:48:17;0.00;99.90
2861;DHT22;1438;50.922;6.704;2023-02-15T05:02:53;0.10;99.90
2861;DHT22;1438;50.922;6.704;2023-02-15T05:05:18;0.40;99.90
2861;DHT22;1438;50.922;6.704;2023-02-15T05:07:44;0.00;99.90
2861;DHT22;1438;50.922;6.704;2023-02-15T05:10:09;0.00;99.90
2861;DHT22;1438;50.922;6.704;2023-02-15T05:12:35;-0.10;99.90
2861;DHT22;1438;50.922;6.704;2023-02-15T05:15:01;0.20;99.90
2861;DHT22;1438;50.922;6.704;2023-02-15T05:17:26;0.20;99.90
2861;DHT22;1438;50.922;6.704;2023-02-15T05:19:52;0.10;99.90
2861;DHT22;1438;50.922;6.704;2023-02-15T05:22:17;0.00;99.90
2861;DHT22;1438;50.922;6.704;2023-02-15T05:24:43;-0.20;99.90
2861;DHT22;1438;50.922;6.704;2023-02-15T05:27:27;-0.10;99.90
2861;DHT22;1438;50.922;6.704;2023-02-15T05:30:11;0.00;99.90
2861;DHT22;1438;50.922;6.704;2023-02-15T05:32:38;0.10;99.90
2861;DHT22;1438;50.922;6.704;2023-02-15T05:35:05;-0.10;99.90
2861;DHT22;1438;50.922;6.704;2023-02-15T05:37:31;0.20;99.90
2861;DHT22;1438;50.922;6.704;2023-02-15T05:39:57;0.20;99.90
2861;DHT22;1438;50.922;6.704;2023-02-15T05:44:48;0.10;99.90
2861;DHT22;1438;50.922;6.704;2023-02-15T05:47:14;0.10;99.90
2861;DHT22;1438;50.922;6.704;2023-02-15T05:49:39;0.10;99.90
2861;DHT22;1438;50.922;6.704;2023-02-15T05:52:05;0.10;99.90
2861;DHT22;1438;50.922;6.704;2023-02-15T05:54:31;0.10;99.90
2861;DHT22;1438;50.922;6.704;2023-02-15T05:56:56;0.00;99.90
2861;DHT22;1438;50.922;6.704;2023-02-15T05:59:22;0.00;99.90
2861;DHT22;1438;50.922;6.704;2023-02-15T06:01:48;0.00;99.90
2861;DHT22;1438;50.922;6.704;2023-02-15T06:04:13;0.00;99.90
2861;DHT22;1438;50.922;6.704;2023-02-15T06:06:39;0.00;99.90
2861;DHT22;1438;50.922;6.704;2023-02-15T06:09:05;0.00;99.90
2861;DHT22;1438;50.922;6.704;2023-02-15T06:11:30;0.00;99.90
